Time;durP1;ratioP1;P1;durP2;ratioP2;P2;SDS_P1;SDS_P2;PMS_P1;PMS_P2;Temp;Humidity;BMP_temperature;BMP_pressure;BME280_temperature;BME280_humidity;BME280_pressure;Samples;Min_cycle;Max_cycle;Signal;HPM_P1;HPM_P2
2023/09/22 00:02:12;;;;;;;7.28;4.43;;;18.50;99.90;;;;;;4993085;28;20026;-72
2023/09/22 00:04:39;;;;;;;7.80;4.22;;;18.40;99.90;;;;;;5002667;28;20026;-72
2023/09/22 00:07:06;;;;;;;10.88;3.72;;;18.40;99.90;;;;;;5000091;28;20077;-72
2023/09/22 00:09:32;;;;;;;6.15;3.35;;;18.20;99.90;;;;;;4996463;28;20096;-73
2023/09/22 00:11:59;;;;;;;6.47;3.08;;;18.20;99.90;;;;;;4998715;28;20034;-72
2023/09/22 00:14:26;;;;;;;7.00;2.92;;;18.20;99.90;;;;;;4993067;28;20395;-72
2023/09/22 00:16:52;;;;;;;7.53;2.70;;;18.20;99.90;;;;;;5000418;28;20489;-72
2023/09/22 00:19:18;;;;;;;6.80;2.90;;;18.20;99.90;;;;;;5001054;28;20026;-72
2023/09/22 00:21:44;;;;;;;8.18;3.03;;;18.20;99.90;;;;;;5002273;28;20365;-73
2023/09/22 00:24:09;;;;;;;6.70;3.30;;;18.10;99.90;;;;;;5003420;28;20088;-72
2023/09/22 00:26:35;;;;;;;7.97;3.13;;;18.20;99.90;;;;;;4999808;28;20046;-72
2023/09/22 00:29:01;;;;;;;7.57;2.72;;;18.30;99.90;;;;;;5002248;28;20030;-73
2023/09/22 00:31:27;;;;;;;8.73;2.85;;;18.30;99.90;;;;;;5000810;28;20030;-72
2023/09/22 00:33:53;;;;;;;9.65;2.90;;;18.30;99.90;;;;;;4997637;28;20492;-72
2023/09/22 00:36:19;;;;;;;5.93;2.38;;;18.40;99.90;;;;;;4992675;28;20038;-72
2023/09/22 00:38:44;;;;;;;6.43;2.65;;;18.40;99.90;;;;;;5002000;28;20037;-72
2023/09/22 00:41:10;;;;;;;6.13;2.42;;;18.40;99.90;;;;;;5000696;28;20030;-72
2023/09/22 00:43:36;;;;;;;5.97;2.50;;;18.40;99.90;;;;;;4994842;28;20447;-73
2023/09/22 00:46:02;;;;;;;6.38;2.97;;;18.40;99.90;;;;;;4996791;28;20031;-72
2023/09/22 00:48:31;;;;;;;5.60;2.40;;;18.40;99.90;;;;;;4995169;28;20460;-72
2023/09/22 00:50:57;;;;;;;6.82;2.60;;;18.40;99.90;;;;;;5000381;28;20034;-72
2023/09/22 00:53:29;;;;;;;6.18;2.13;;;18.30;99.90;;;;;;5001442;28;20028;-72
2023/09/22 00:55:56;;;;;;;5.40;2.85;;;18.20;99.90;;;;;;5001756;28;20037;-72
2023/09/22 00:58:23;;;;;;;8.40;2.50;;;18.20;99.90;;;;;;5002681;28;20026;-72
2023/09/22 01:00:49;;;;;;;7.85;2.38;;;18.20;99.90;;;;;;4993729;28;25754;-72
2023/09/22 01:03:16;;;;;;;5.30;2.35;;;18.20;99.90;;;;;;4999253;28;20116;-72
2023/09/22 01:05:43;;;;;;;4.10;2.22;;;18.20;99.90;;;;;;4994222;28;20026;-73
2023/09/22 01:08:09;;;;;;;7.53;3.17;;;18.30;99.90;;;;;;5002011;28;20129;-72
2023/09/22 01:10:40;;;;;;;7.75;2.28;;;18.30;99.90;;;;;;4995199;28;20455;-72
2023/09/22 01:13:06;;;;;;;5.70;2.10;;;18.30;99.90;;;;;;4994527;28;20041;-72
2023/09/22 01:15:37;;;;;;;6.32;2.58;;;18.30;99.90;;;;;;5001941;28;20022;-72
2023/09/22 01:18:07;;;;;;;6.85;2.30;;;18.30;99.90;;;;;;4999783;28;20054;-72
2023/09/22 01:20:43;;;;;;;5.70;2.05;;;18.20;99.90;;;;;;5003070;28;20026;-72
2023/09/22 01:23:12;;;;;;;8.43;2.63;;;18.30;99.90;;;;;;5002229;28;20040;-72
2023/09/22 01:25:39;;;;;;;5.82;2.38;;;18.20;99.90;;;;;;5000298;28;20022;-72
2023/09/22 01:28:06;;;;;;;8.13;2.92;;;18.30;99.90;;;;;;4996452;28;20034;-72
2023/09/22 01:30:33;;;;;;;6.70;2.75;;;18.30;99.90;;;;;;4999003;28;20021;-72
2023/09/22 01:33:01;;;;;;;10.25;3.13;;;18.20;99.90;;;;;;4998356;28;20029;-72
2023/09/22 01:35:27;;;;;;;7.50;2.92;;;18.30;99.90;;;;;;4996610;28;20038;-72
2023/09/22 01:38:00;;;;;;;7.00;2.67;;;18.30;99.90;;;;;;5001131;28;20367;-72
2023/09/22 01:40:25;;;;;;;9.73;2.92;;;18.30;99.90;;;;;;4994721;28;20057;-72
2023/09/22 01:42:51;;;;;;;6.07;2.35;;;18.30;99.90;;;;;;4997774;28;20173;-72
2023/09/22 01:45:17;;;;;;;5.10;2.60;;;18.30;99.90;;;;;;5002239;28;20084;-72
2023/09/22 01:47:42;;;;;;;7.65;2.78;;;18.30;99.90;;;;;;4997135;28;20722;-72
2023/09/22 01:50:08;;;;;;;5.63;2.40;;;18.20;99.90;;;;;;4993944;28;20030;-72
2023/09/22 01:52:37;;;;;;;7.07;2.60;;;18.20;99.90;;;;;;4999547;28;20472;-72
2023/09/22 01:55:06;;;;;;;6.00;2.60;;;18.20;99.90;;;;;;5000716;28;20081;-72
2023/09/22 01:57:32;;;;;;;6.25;2.72;;;18.10;99.90;;;;;;4992303;28;20030;-72
2023/09/22 01:59:58;;;;;;;12.88;2.65;;;18.00;99.90;;;;;;4997763;28;20030;-73
2023/09/22 02:02:24;;;;;;;5.70;2.70;;;17.90;99.90;;;;;;4997126;28;20112;-72
2023/09/22 02:04:50;;;;;;;5.05;2.45;;;17.90;99.90;;;;;;4999732;28;20037;-73
2023/09/22 02:07:15;;;;;;;8.95;2.40;;;18.00;99.90;;;;;;4997848;28;20059;-73
2023/09/22 02:09:41;;;;;;;7.13;2.53;;;17.90;99.90;;;;;;5000675;28;20396;-72
2023/09/22 02:12:07;;;;;;;5.65;2.85;;;18.00;99.90;;;;;;4994793;28;20057;-72
2023/09/22 02:14:33;;;;;;;8.60;2.67;;;18.10;99.90;;;;;;4992342;28;20099;-72
2023/09/22 02:16:59;;;;;;;9.02;3.58;;;18.10;99.90;;;;;;4991062;28;20085;-72
2023/09/22 02:19:25;;;;;;;8.50;2.65;;;18.10;99.90;;;;;;4994894;28;20037;-72
2023/09/22 02:21:51;;;;;;;7.28;2.65;;;18.10;99.90;;;;;;4995733;28;20029;-72
2023/09/22 02:24:16;;;;;;;11.52;2.22;;;18.00;99.90;;;;;;4999293;28;20079;-72
2023/09/22 02:26:43;;;;;;;7.07;2.40;;;17.90;99.90;;;;;;4995655;28;20045;-72
2023/09/22 02:29:09;;;;;;;4.60;2.00;;;17.90;99.90;;;;;;4993916;28;20026;-72
2023/09/22 02:31:34;;;;;;;5.13;2.03;;;18.00;99.90;;;;;;4999024;28;20404;-72
2023/09/22 02:34:01;;;;;;;8.57;2.88;;;18.10;99.90;;;;;;4996308;28;20116;-72
2023/09/22 02:36:27;;;;;;;6.25;2.35;;;18.20;99.90;;;;;;4993809;28;20029;-72
2023/09/22 02:38:53;;;;;;;6.95;2.95;;;18.30;99.90;;;;;;4989924;28;20568;-72
2023/09/22 02:41:19;;;;;;;9.15;2.50;;;18.20;99.90;;;;;;4992245;28;20137;-73
2023/09/22 02:43:45;;;;;;;8.90;2.53;;;18.20;99.90;;;;;;4996315;28;20094;-73
2023/09/22 02:46:11;;;;;;;9.13;2.20;;;18.20;99.90;;;;;;4990939;28;20038;-72
2023/09/22 02:48:36;;;;;;;7.72;1.98;;;18.20;99.90;;;;;;4999607;28;20113;-72
2023/09/22 02:51:07;;;;;;;6.35;2.08;;;18.30;99.90;;;;;;5001603;28;20031;-72
2023/09/22 02:53:33;;;;;;;8.40;2.05;;;18.40;99.90;;;;;;4998096;28;20034;-73
2023/09/22 02:56:05;;;;;;;7.07;2.35;;;18.20;99.90;;;;;;4992261;28;20668;-72
2023/09/22 02:58:32;;;;;;;4.68;2.33;;;18.20;99.90;;;;;;4990779;28;20484;-72
2023/09/22 03:00:58;;;;;;;5.20;1.73;;;18.20;99.90;;;;;;4990462;28;20369;-72
2023/09/22 03:03:24;;;;;;;5.35;2.28;;;18.10;99.90;;;;;;4988878;28;20132;-72
2023/09/22 03:05:50;;;;;;;7.68;2.58;;;17.90;99.90;;;;;;4991283;28;20451;-73
2023/09/22 03:08:16;;;;;;;4.32;1.77;;;17.80;99.90;;;;;;4992410;28;20034;-72
2023/09/22 03:10:41;;;;;;;8.80;2.22;;;17.80;99.90;;;;;;4985892;28;20026;-72
2023/09/22 03:13:07;;;;;;;7.78;2.83;;;17.70;99.90;;;;;;4987142;28;20702;-72
2023/09/22 03:15:36;;;;;;;4.80;2.22;;;17.60;99.90;;;;;;4991090;28;20034;-72
2023/09/22 03:18:04;;;;;;;5.32;1.92;;;17.60;99.90;;;;;;4990376;28;20026;-72
2023/09/22 03:20:29;;;;;;;9.27;1.92;;;17.80;99.90;;;;;;4992875;28;20467;-72
2023/09/22 03:22:56;;;;;;;6.20;2.17;;;17.60;99.90;;;;;;4986977;28;20037;-72
2023/09/22 03:25:21;;;;;;;6.30;1.58;;;17.70;99.90;;;;;;4992044;28;20375;-72
2023/09/22 03:27:47;;;;;;;5.65;2.20;;;17.70;99.90;;;;;;5003347;28;20042;-72
2023/09/22 03:30:15;;;;;;;7.78;2.20;;;17.80;99.90;;;;;;4997709;28;20030;-72
2023/09/22 03:32:41;;;;;;;4.20;2.10;;;17.70;99.90;;;;;;4999093;28;20500;-72
2023/09/22 03:35:08;;;;;;;4.10;2.25;;;17.70;99.90;;;;;;4995111;28;20033;-72
2023/09/22 03:37:37;;;;;;;3.17;1.38;;;17.70;99.90;;;;;;4992506;28;20607;-72
2023/09/22 03:40:14;;;;;;;4.35;1.80;;;17.70;99.90;;;;;;4992661;28;20403;-72
2023/09/22 03:42:45;;;;;;;5.30;2.20;;;17.80;99.90;;;;;;4993294;28;20037;-72
2023/09/22 03:45:12;;;;;;;5.28;1.90;;;17.70;99.90;;;;;;4985397;28;20991;-71
2023/09/22 03:47:39;;;;;;;3.33;1.73;;;17.70;99.90;;;;;;4986218;28;20046;-72
2023/09/22 03:50:05;;;;;;;4.63;1.95;;;17.70;99.90;;;;;;4993201;28;20026;-72
2023/09/22 03:52:31;;;;;;;4.97;1.48;;;17.50;99.90;;;;;;4998797;28;20030;-72
2023/09/22 03:54:57;;;;;;;5.28;1.85;;;17.40;99.90;;;;;;4998264;28;20030;-72
2023/09/22 03:57:22;;;;;;;4.53;1.80;;;17.40;99.90;;;;;;4996403;28;20041;-72
2023/09/22 03:59:49;;;;;;;4.72;2.10;;;17.40;99.90;;;;;;4993321;28;20022;-72
2023/09/22 04:02:14;;;;;;;6.05;2.15;;;17.40;99.90;;;;;;4991677;28;20073;-72
2023/09/22 04:04:40;;;;;;;5.97;2.10;;;17.50;99.90;;;;;;4988099;28;20026;-71
2023/09/22 04:07:06;;;;;;;3.60;2.00;;;17.60;99.90;;;;;;4994673;28;20052;-72
2023/09/22 04:09:32;;;;;;;5.82;1.60;;;17.70;99.90;;;;;;4992627;28;20350;-72
2023/09/22 04:11:58;;;;;;;4.05;1.67;;;17.60;99.90;;;;;;4991789;28;20045;-72
2023/09/22 04:14:23;;;;;;;4.30;1.80;;;17.50;99.90;;;;;;4986768;28;20600;-72
2023/09/22 04:16:50;;;;;;;3.67;1.83;;;17.50;99.90;;;;;;4994521;28;20049;-72
2023/09/22 04:19:15;;;;;;;4.85;2.05;;;17.60;99.90;;;;;;4996880;28;20042;-72
2023/09/22 04:21:48;;;;;;;6.47;2.38;;;17.70;99.90;;;;;;4996023;28;20041;-73
2023/09/22 04:24:14;;;;;;;10.15;2.47;;;17.80;99.90;;;;;;4989851;28;20081;-72
2023/09/22 04:26:43;;;;;;;4.72;1.90;;;17.50;99.90;;;;;;4983279;28;20047;-71
2023/09/22 04:29:10;;;;;;;5.55;2.00;;;17.40;99.90;;;;;;4991588;28;20030;-72
2023/09/22 04:31:36;;;;;;;4.68;1.80;;;17.50;99.90;;;;;;4987574;28;20058;-71
2023/09/22 04:34:02;;;;;;;5.15;2.25;;;17.20;99.90;;;;;;4988081;28;20040;-72
2023/09/22 04:36:27;;;;;;;5.38;1.88;;;17.30;99.90;;;;;;4988632;28;20387;-72
2023/09/22 04:38:53;;;;;;;6.68;2.08;;;17.30;99.90;;;;;;4993335;28;20038;-72
2023/09/22 04:41:22;;;;;;;4.88;2.03;;;17.40;99.90;;;;;;4987397;28;20037;-72
2023/09/22 04:43:48;;;;;;;7.55;2.47;;;17.40;99.90;;;;;;4992176;28;20045;-72
2023/09/22 04:46:19;;;;;;;5.07;2.60;;;17.40;99.90;;;;;;4988963;28;20037;-72
2023/09/22 04:48:46;;;;;;;4.53;1.48;;;17.30;99.90;;;;;;4995404;28;20057;-72
2023/09/22 04:51:14;;;;;;;3.97;1.98;;;17.50;99.90;;;;;;4995030;28;20018;-72
2023/09/22 04:53:41;;;;;;;3.90;2.00;;;17.70;99.90;;;;;;4995444;28;20026;-72
2023/09/22 04:56:07;;;;;;;6.30;2.35;;;17.70;99.90;;;;;;4992986;28;20022;-72
2023/09/22 04:58:34;;;;;;;5.65;2.20;;;17.70;99.90;;;;;;4994657;28;20603;-72
2023/09/22 05:01:02;;;;;;;4.13;2.00;;;18.00;99.90;;;;;;4990783;28;20104;-72
2023/09/22 05:03:28;;;;;;;7.13;2.30;;;18.00;99.90;;;;;;4992318;28;20023;-72
2023/09/22 05:06:01;;;;;;;5.78;2.30;;;18.00;99.90;;;;;;4987622;28;20080;-72
2023/09/22 05:08:27;;;;;;;4.72;2.20;;;17.90;99.90;;;;;;4988278;28;20064;-72
2023/09/22 05:10:52;;;;;;;3.45;1.70;;;17.70;99.90;;;;;;4983118;28;20488;-72
2023/09/22 05:13:18;;;;;;;7.05;2.80;;;17.80;99.90;;;;;;4992614;28;20038;-73
2023/09/22 05:15:45;;;;;;;9.15;2.10;;;17.90;99.90;;;;;;4998057;28;20520;-72
2023/09/22 05:18:14;;;;;;;5.22;1.90;;;17.80;99.90;;;;;;4993363;28;20060;-71
2023/09/22 05:20:40;;;;;;;7.00;2.65;;;17.90;99.90;;;;;;4985911;28;20093;-72
2023/09/22 05:23:07;;;;;;;5.25;2.10;;;17.70;99.90;;;;;;4991401;28;20052;-71
2023/09/22 05:25:39;;;;;;;4.70;2.05;;;17.70;99.90;;;;;;4990849;28;20022;-72
2023/09/22 05:28:05;;;;;;;3.42;1.85;;;17.80;99.90;;;;;;4997603;28;20030;-71
2023/09/22 05:30:31;;;;;;;5.43;2.33;;;17.80;99.90;;;;;;4986775;28;20034;-72
2023/09/22 05:32:57;;;;;;;6.60;1.73;;;17.80;99.90;;;;;;4992928;28;20356;-72
2023/09/22 05:35:23;;;;;;;5.05;1.90;;;17.70;99.90;;;;;;4992844;28;20033;-72
2023/09/22 05:37:52;;;;;;;5.05;2.30;;;17.70;99.90;;;;;;4986568;28;20060;-71
2023/09/22 05:40:18;;;;;;;15.27;2.20;;;17.70;99.90;;;;;;4989410;28;20026;-71
2023/09/22 05:42:43;;;;;;;7.55;2.63;;;17.60;99.90;;;;;;4989680;28;20384;-71
2023/09/22 05:45:09;;;;;;;6.47;2.30;;;17.60;99.90;;;;;;4987379;28;20514;-72
2023/09/22 05:47:36;;;;;;;4.40;2.22;;;17.60;99.90;;;;;;4989592;28;20042;-71
2023/09/22 05:50:02;;;;;;;5.80;2.08;;;17.60;99.90;;;;;;4986390;28;20057;-71
2023/09/22 05:52:29;;;;;;;4.93;2.22;;;17.40;99.90;;;;;;4992732;28;20036;-71
2023/09/22 05:54:56;;;;;;;4.47;1.88;;;17.40;99.90;;;;;;4993068;28;20034;-71
2023/09/22 05:57:22;;;;;;;6.95;2.20;;;17.10;99.90;;;;;;4988086;28;20022;-72
2023/09/22 05:59:48;;;;;;;5.97;1.95;;;17.30;99.90;;;;;;4982629;28;20464;-71
2023/09/22 06:02:14;;;;;;;3.92;1.88;;;17.40;99.90;;;;;;4987904;28;20060;-71
2023/09/22 06:04:40;;;;;;;4.53;2.20;;;17.50;99.90;;;;;;4990605;28;20058;-71
2023/09/22 06:07:12;;;;;;;6.13;3.10;;;17.50;99.90;;;;;;4986711;28;20109;-71
2023/09/22 06:09:38;;;;;;;3.83;2.13;;;17.50;99.90;;;;;;4984730;28;20030;-71
2023/09/22 06:12:04;;;;;;;4.80;1.75;;;17.50;99.90;;;;;;4986246;28;20400;-71
2023/09/22 06:14:30;;;;;;;4.80;1.90;;;17.60;99.90;;;;;;4987333;28;20056;-71
2023/09/22 06:16:55;;;;;;;5.03;2.20;;;17.60;99.90;;;;;;4984625;28;20050;-71
2023/09/22 06:19:21;;;;;;;4.13;1.73;;;17.60;99.90;;;;;;4986918;28;20370;-71
2023/09/22 06:21:47;;;;;;;4.75;1.75;;;17.60;99.90;;;;;;4990543;28;20042;-72
2023/09/22 06:24:13;;;;;;;4.07;2.00;;;17.50;99.90;;;;;;4989472;28;20036;-71
2023/09/22 06:26:38;;;;;;;7.10;2.10;;;17.50;99.90;;;;;;4988586;28;20782;-72
2023/09/22 06:29:05;;;;;;;6.50;2.70;;;17.50;99.90;;;;;;4982406;28;20597;-71
2023/09/22 06:31:32;;;;;;;4.78;3.05;;;17.30;99.90;;;;;;4987490;28;20023;-71
2023/09/22 06:33:59;;;;;;;5.50;2.47;;;17.30;99.90;;;;;;4986830;28;20034;-71
2023/09/22 06:36:24;;;;;;;6.65;2.53;;;17.20;99.90;;;;;;4982494;28;20037;-72
2023/09/22 06:38:50;;;;;;;5.75;2.67;;;17.20;99.90;;;;;;4989277;28;20034;-72
2023/09/22 06:41:20;;;;;;;4.65;2.50;;;17.10;99.90;;;;;;4988421;28;20444;-71
2023/09/22 06:43:46;;;;;;;5.28;2.67;;;17.10;99.90;;;;;;4984892;28;20026;-71
2023/09/22 06:46:14;;;;;;;5.95;2.63;;;17.20;99.90;;;;;;4988088;28;20373;-71
2023/09/22 06:48:39;;;;;;;5.15;2.92;;;17.10;99.90;;;;;;4990274;28;20104;-71
2023/09/22 06:51:06;;;;;;;5.30;2.67;;;17.10;99.90;;;;;;4987812;28;20607;-71
2023/09/22 06:53:34;;;;;;;7.18;2.90;;;17.10;99.90;;;;;;4987938;28;20611;-71
2023/09/22 06:56:06;;;;;;;8.70;3.28;;;17.10;99.90;;;;;;4986435;28;20068;-71
2023/09/22 06:58:36;;;;;;;6.10;2.42;;;17.20;99.90;;;;;;4985331;28;20502;-72
2023/09/22 07:01:14;;;;;;;6.07;3.17;;;17.20;99.90;;;;;;4985658;28;20041;-72
2023/09/22 07:03:41;;;;;;;5.80;2.83;;;17.20;99.90;;;;;;4990182;28;20590;-72
2023/09/22 07:06:10;;;;;;;4.53;2.33;;;17.20;99.90;;;;;;4988290;28;20149;-72
2023/09/22 07:08:37;;;;;;;5.80;1.60;;;17.00;99.90;;;;;;4988540;28;20018;-72
2023/09/22 07:11:05;;;;;;;3.65;1.50;;;16.90;99.90;;;;;;4991389;28;20337;-72
2023/09/22 07:13:31;;;;;;;3.65;1.52;;;16.80;99.90;;;;;;4991121;28;20073;-72
2023/09/22 07:15:57;;;;;;;7.40;1.63;;;17.00;99.90;;;;;;4988751;28;20503;-72
2023/09/22 07:18:26;;;;;;;4.35;1.33;;;17.00;99.90;;;;;;4990529;28;20467;-71
2023/09/22 07:20:55;;;;;;;3.25;1.85;;;17.10;99.90;;;;;;4989359;28;20038;-71
2023/09/22 07:23:22;;;;;;;5.57;1.67;;;17.00;99.90;;;;;;4989317;28;20062;-71
2023/09/22 07:26:20;;;;;;;4.88;1.40;;;17.00;99.90;;;;;;4991087;28;20030;-71
2023/09/22 07:28:46;;;;;;;3.88;1.77;;;17.10;99.90;;;;;;4973173;28;20046;-71
2023/09/22 07:31:18;;;;;;;5.30;1.77;;;16.90;99.90;;;;;;4988813;28;20030;-72
2023/09/22 07:33:44;;;;;;;7.65;2.05;;;16.90;99.90;;;;;;4988013;28;20056;-71
2023/09/22 07:36:10;;;;;;;4.15;1.65;;;16.90;99.90;;;;;;4990232;28;20038;-72
2023/09/22 07:38:36;;;;;;;7.75;1.80;;;16.90;99.90;;;;;;4994929;28;20357;-71
2023/09/22 07:41:03;;;;;;;4.72;1.48;;;16.90;99.90;;;;;;4988830;28;20045;-72
2023/09/22 07:43:29;;;;;;;2.80;1.02;;;17.00;99.90;;;;;;4986835;28;20038;-72
2023/09/22 07:45:59;;;;;;;4.65;1.33;;;17.00;99.90;;;;;;4986795;28;20120;-71
2023/09/22 07:48:25;;;;;;;3.95;1.30;;;17.00;99.90;;;;;;4991648;28;20042;-72
2023/09/22 07:50:52;;;;;;;4.88;1.70;;;17.00;99.90;;;;;;4989204;28;20038;-71
2023/09/22 07:53:19;;;;;;;3.05;1.35;;;17.00;99.90;;;;;;4989826;28;20030;-72
2023/09/22 07:55:45;;;;;;;4.85;1.52;;;17.00;99.90;;;;;;4990186;28;20026;-72
2023/09/22 07:58:11;;;;;;;3.33;1.55;;;17.00;99.90;;;;;;4993380;28;20084;-71
2023/09/22 08:00:42;;;;;;;5.80;1.67;;;17.00;99.90;;;;;;4990204;28;20029;-71
2023/09/22 08:03:09;;;;;;;5.80;2.00;;;17.10;99.90;;;;;;4990140;28;20033;-71
2023/09/22 08:05:35;;;;;;;3.22;1.30;;;17.10;99.90;;;;;;4994811;28;20045;-71
2023/09/22 08:08:01;;;;;;;3.00;1.45;;;16.90;99.90;;;;;;4992236;28;20042;-71
2023/09/22 08:10:29;;;;;;;6.90;1.90;;;16.90;99.90;;;;;;4994510;28;20085;-71
2023/09/22 08:12:55;;;;;;;2.50;1.30;;;17.00;99.90;;;;;;4995988;28;20046;-71
2023/09/22 08:15:21;;;;;;;5.40;1.83;;;17.10;99.90;;;;;;4993742;28;20044;-71
2023/09/22 08:17:49;;;;;;;2.30;1.27;;;17.10;99.90;;;;;;4995145;28;20084;-71
2023/09/22 08:20:15;;;;;;;5.57;2.40;;;17.10;99.90;;;;;;4996986;28;20105;-71
2023/09/22 08:22:47;;;;;;;4.38;1.90;;;17.20;99.90;;;;;;4992354;28;20077;-71
2023/09/22 08:25:13;;;;;;;3.70;1.77;;;17.20;99.90;;;;;;4995375;28;20088;-71
2023/09/22 08:27:39;;;;;;;6.43;3.13;;;17.10;99.90;;;;;;4993515;28;20034;-71
2023/09/22 08:30:11;;;;;;;4.82;2.45;;;17.20;99.90;;;;;;4995019;28;20034;-71
2023/09/22 08:32:39;;;;;;;6.78;1.80;;;17.00;99.90;;;;;;4994624;28;20025;-71
2023/09/22 08:35:06;;;;;;;4.43;1.55;;;17.00;99.90;;;;;;4997596;28;20503;-71
2023/09/22 08:37:33;;;;;;;4.13;1.60;;;17.10;99.90;;;;;;4992931;28;20037;-71
2023/09/22 08:40:00;;;;;;;4.07;1.83;;;17.10;99.90;;;;;;4992938;28;20112;-71
2023/09/22 08:42:26;;;;;;;3.40;1.70;;;17.20;99.90;;;;;;4995702;28;20109;-71
2023/09/22 08:44:55;;;;;;;6.05;2.78;;;17.20;99.90;;;;;;4992417;28;20512;-71
2023/09/22 08:47:22;;;;;;;6.20;2.70;;;17.20;99.90;;;;;;4993294;28;20034;-71
2023/09/22 08:49:48;;;;;;;5.05;2.00;;;17.20;99.90;;;;;;4995301;28;20064;-71
2023/09/22 08:52:14;;;;;;;6.40;3.13;;;17.10;99.90;;;;;;4994065;28;20053;-71
2023/09/22 08:54:39;;;;;;;8.70;3.42;;;17.10;99.90;;;;;;4994306;28;20129;-71
2023/09/22 08:57:06;;;;;;;4.78;2.83;;;17.10;99.90;;;;;;4996751;28;20057;-71
2023/09/22 08:59:31;;;;;;;7.88;3.03;;;17.10;99.90;;;;;;4993117;28;20027;-71
2023/09/22 09:01:58;;;;;;;7.63;2.88;;;17.20;99.90;;;;;;4992581;28;20027;-71
2023/09/22 09:04:31;;;;;;;10.63;3.10;;;17.20;99.90;;;;;;4993874;28;20117;-71
2023/09/22 09:06:57;;;;;;;5.13;2.58;;;17.00;99.90;;;;;;4995477;28;20103;-71
2023/09/22 09:09:23;;;;;;;4.57;1.85;;;17.10;99.90;;;;;;4998941;28;20610;-71
2023/09/22 09:12:02;;;;;;;5.00;2.25;;;17.20;99.90;;;;;;4993345;28;20041;-71
2023/09/22 09:14:28;;;;;;;7.05;2.60;;;17.30;99.90;;;;;;4993347;28;20457;-71
2023/09/22 09:16:57;;;;;;;5.20;2.38;;;17.20;99.90;;;;;;4992395;28;20036;-71
2023/09/22 09:19:22;;;;;;;4.40;2.00;;;17.40;99.90;;;;;;4985702;28;20040;-71
2023/09/22 09:22:12;;;;;;;6.65;2.55;;;17.20;99.90;;;;;;4985837;28;20026;-71
2023/09/22 09:24:38;;;;;;;4.25;1.45;;;17.40;99.90;;;;;;4986256;28;20085;-71
2023/09/22 09:27:21;;;;;;;3.72;1.65;;;17.30;99.90;;;;;;4992034;28;20043;-71
2023/09/22 09:29:50;;;;;;;7.13;1.83;;;17.40;99.90;;;;;;4993348;28;20034;-71
2023/09/22 09:32:23;;;;;;;4.55;1.83;;;17.60;99.90;;;;;;4995390;28;20033;-71
2023/09/22 09:34:49;;;;;;;2.97;1.42;;;17.70;99.90;;;;;;4991927;28;20034;-71
2023/09/22 09:37:15;;;;;;;5.28;1.88;;;17.80;99.90;;;;;;4993616;28;20037;-71
2023/09/22 09:39:52;;;;;;;5.72;2.17;;;17.80;99.90;;;;;;4993606;28;20046;-71
2023/09/22 09:42:22;;;;;;;4.55;2.03;;;17.70;99.90;;;;;;4986537;28;20097;-71
2023/09/22 09:45:01;;;;;;;10.63;2.35;;;17.50;99.90;;;;;;4987984;28;20523;-72
2023/09/22 09:47:35;;;;;;;6.72;2.38;;;17.60;99.90;;;;;;4984806;28;20042;-71
2023/09/22 09:50:04;;;;;;;8.55;2.70;;;17.50;99.90;;;;;;4985125;28;20581;-72
2023/09/22 09:52:40;;;;;;;6.53;2.30;;;17.60;99.90;;;;;;4986935;28;20027;-71
2023/09/22 09:55:12;;;;;;;5.95;1.70;;;17.70;99.90;;;;;;4989726;28;20113;-71
2023/09/22 09:57:52;;;;;;;6.22;2.03;;;17.70;99.90;;;;;;4983710;28;20057;-72
2023/09/22 10:00:20;;;;;;;7.00;1.83;;;17.70;99.90;;;;;;4985490;28;20029;-72
2023/09/22 10:02:51;;;;;;;6.10;1.88;;;17.80;99.90;;;;;;4984185;28;20087;-72
2023/09/22 10:05:23;;;;;;;3.80;1.60;;;17.90;99.90;;;;;;4981398;28;20033;-71
2023/09/22 10:07:50;;;;;;;5.22;1.83;;;17.80;99.90;;;;;;4984836;28;20161;-71
2023/09/22 10:10:19;;;;;;;7.43;2.00;;;18.00;99.90;;;;;;4982495;28;20397;-71
2023/09/22 10:12:46;;;;;;;3.78;1.38;;;18.00;99.90;;;;;;4980596;28;20025;-71
2023/09/22 10:15:12;;;;;;;3.35;1.65;;;18.00;99.90;;;;;;4986971;28;20018;-71
2023/09/22 10:17:38;;;;;;;6.10;1.52;;;18.00;99.90;;;;;;4980763;28;20026;-71
2023/09/22 10:20:10;;;;;;;3.75;2.13;;;18.10;99.90;;;;;;4985927;28;20464;-72
2023/09/22 10:22:37;;;;;;;5.75;2.00;;;18.20;99.90;;;;;;4988888;28;20050;-72
2023/09/22 10:25:11;;;;;;;5.63;2.00;;;18.30;99.90;;;;;;4984616;28;20049;-72
2023/09/22 10:28:00;;;;;;;4.05;1.40;;;18.30;99.90;;;;;;4987516;28;20400;-72
2023/09/22 10:30:46;;;;;;;4.18;1.92;;;18.20;99.90;;;;;;4985926;28;20034;-71
2023/09/22 10:33:27;;;;;;;5.45;1.55;;;18.40;99.90;;;;;;4980160;28;20721;-71
2023/09/22 10:35:56;;;;;;;3.30;1.45;;;18.30;99.90;;;;;;4985184;28;20034;-71
2023/09/22 10:38:22;;;;;;;4.30;1.95;;;18.20;99.90;;;;;;4987827;28;20484;-72
2023/09/22 10:40:59;;;;;;;2.80;1.50;;;18.00;99.90;;;;;;4985287;28;20045;-71
2023/09/22 10:43:26;;;;;;;4.25;1.63;;;18.00;99.90;;;;;;4997329;28;20026;-72
2023/09/22 10:45:53;;;;;;;5.90;1.42;;;18.20;99.90;;;;;;5007301;28;20109;-72
2023/09/22 10:48:19;;;;;;;3.63;1.48;;;18.20;99.90;;;;;;5005870;28;20114;-72
2023/09/22 10:50:52;;;;;;;5.53;2.03;;;18.10;99.90;;;;;;5007817;28;20110;-71
2023/09/22 10:53:18;;;;;;;8.23;1.70;;;18.10;99.90;;;;;;5007637;28;20029;-72
2023/09/22 10:55:45;;;;;;;4.30;1.85;;;18.10;99.90;;;;;;5008614;28;20113;-71
2023/09/22 10:58:14;;;;;;;4.20;1.67;;;18.20;99.90;;;;;;5007358;28;20096;-71
2023/09/22 11:00:53;;;;;;;5.75;2.13;;;18.20;99.90;;;;;;5007672;28;20044;-71
2023/09/22 11:03:19;;;;;;;4.93;2.03;;;18.20;99.90;;;;;;5006294;28;20029;-72
2023/09/22 11:05:55;;;;;;;3.60;1.80;;;18.10;99.90;;;;;;5005483;28;20034;-71
2023/09/22 11:08:21;;;;;;;2.72;1.60;;;18.30;99.90;;;;;;4997466;28;20038;-71
2023/09/22 11:10:53;;;;;;;4.15;1.80;;;18.40;99.90;;;;;;5007113;28;20073;-71
2023/09/22 11:13:21;;;;;;;4.13;2.15;;;18.50;99.90;;;;;;5005018;28;20049;-72
2023/09/22 11:15:59;;;;;;;4.03;1.70;;;18.60;99.90;;;;;;5005669;28;20045;-71
2023/09/22 11:18:27;;;;;;;4.45;1.65;;;18.70;99.90;;;;;;5004551;28;20104;-72
2023/09/22 11:20:58;;;;;;;3.53;1.60;;;19.00;99.90;;;;;;5008647;28;20068;-72
2023/09/22 11:23:26;;;;;;;4.18;1.67;;;19.00;99.90;;;;;;5008011;28;20095;-72
2023/09/22 11:25:55;;;;;;;3.42;1.60;;;19.10;99.90;;;;;;5007763;28;20491;-72
2023/09/22 11:28:21;;;;;;;5.13;1.60;;;19.00;99.90;;;;;;5008242;28;20096;-72
2023/09/22 11:30:50;;;;;;;3.67;1.50;;;18.80;99.90;;;;;;5007426;28;20034;-72
2023/09/22 11:33:16;;;;;;;4.80;1.50;;;18.70;99.90;;;;;;5007302;28;20030;-72
2023/09/22 11:35:42;;;;;;;3.47;1.52;;;18.60;99.90;;;;;;5005252;28;20120;-72
2023/09/22 11:38:24;;;;;;;4.47;1.77;;;18.40;99.90;;;;;;4995804;28;20109;-71
2023/09/22 11:40:51;;;;;;;4.53;1.30;;;18.50;99.90;;;;;;4988638;28;20124;-71
2023/09/22 11:43:17;;;;;;;4.55;1.60;;;18.40;99.90;;;;;;4995036;28;20484;-72
2023/09/22 11:45:43;;;;;;;3.42;1.60;;;18.30;99.90;;;;;;4989278;28;20027;-72
2023/09/22 11:48:09;;;;;;;3.35;1.30;;;18.10;99.90;;;;;;4990507;28;20125;-71
2023/09/22 11:50:34;;;;;;;4.68;1.85;;;18.20;99.90;;;;;;4993678;28;20034;-72
2023/09/22 11:53:19;;;;;;;3.20;1.90;;;18.20;99.90;;;;;;4991055;28;20093;-71
2023/09/22 11:55:46;;;;;;;4.65;1.80;;;18.20;99.90;;;;;;4988150;28;20037;-72
2023/09/22 11:58:14;;;;;;;4.20;2.00;;;18.40;99.90;;;;;;4985352;28;20033;-72
2023/09/22 12:00:40;;;;;;;3.20;1.35;;;18.40;99.90;;;;;;4984908;28;20033;-72
2023/09/22 12:03:06;;;;;;;5.97;1.90;;;18.60;99.90;;;;;;4988775;28;20080;-71
2023/09/22 12:05:36;;;;;;;5.93;1.65;;;18.30;99.90;;;;;;4988115;28;20080;-72
2023/09/22 12:08:04;;;;;;;4.65;1.98;;;18.20;99.90;;;;;;4990541;28;20123;-72
2023/09/22 12:10:29;;;;;;;3.03;1.60;;;17.90;99.90;;;;;;4985606;28;20022;-72
2023/09/22 12:12:55;;;;;;;3.83;1.55;;;17.90;99.90;;;;;;4994392;28;20366;-72
2023/09/22 12:15:21;;;;;;;3.78;1.88;;;17.90;99.90;;;;;;4991606;28;20026;-72
2023/09/22 12:17:46;;;;;;;7.07;1.52;;;17.90;99.90;;;;;;4986624;28;20125;-72
2023/09/22 12:20:12;;;;;;;5.35;2.28;;;17.80;99.90;;;;;;4992342;28;20018;-72
2023/09/22 12:22:38;;;;;;;5.95;1.83;;;17.90;99.90;;;;;;4991088;28;20434;-72
2023/09/22 12:25:06;;;;;;;10.65;2.42;;;17.80;99.90;;;;;;4986439;28;20524;-71
2023/09/22 12:27:32;;;;;;;7.25;2.00;;;17.80;99.90;;;;;;4988356;28;20061;-72
2023/09/22 12:29:59;;;;;;;4.95;1.90;;;17.80;99.90;;;;;;4986509;28;20084;-72
2023/09/22 12:32:25;;;;;;;5.65;1.83;;;17.80;99.90;;;;;;4990838;28;20061;-72
2023/09/22 12:34:53;;;;;;;4.80;1.95;;;17.80;99.90;;;;;;4985912;28;20109;-72
2023/09/22 12:37:20;;;;;;;4.18;1.83;;;17.70;99.90;;;;;;4990901;28;20529;-72
2023/09/22 12:39:45;;;;;;;4.50;1.70;;;17.70;99.90;;;;;;4987890;28;20618;-72
2023/09/22 12:42:11;;;;;;;4.38;2.10;;;17.40;99.90;;;;;;4985113;28;20030;-72
2023/09/22 12:44:37;;;;;;;3.08;1.58;;;17.30;99.90;;;;;;4986443;28;20054;-72
2023/09/22 12:47:03;;;;;;;6.18;2.28;;;17.30;99.90;;;;;;4991959;28;20121;-72
2023/09/22 12:49:29;;;;;;;7.15;2.03;;;17.50;99.90;;;;;;4992930;28;20586;-72